Time;durP1;ratioP1;P1;durP2;ratioP2;P2;SDS_P1;SDS_P2;PMS_P1;PMS_P2;Temp;Humidity;BMP_temperature;BMP_pressure;BME280_temperature;BME280_humidity;BME280_pressure;Samples;Min_cycle;Max_cycle;Signal;HPM_P1;HPM_P2
2023/05/17 05:04:28;;;;;;;23.08;7.53;;;10.70;99.90;;;;;;6093794;23;20050;-93
2023/05/17 05:07:27;;;;;;;;;;;;;;;;;;;;;
2023/05/17 05:10:44;;;;;;;22.63;8.27;;;10.70;99.90;;;;;;6239167;23;20453;-90
2023/05/17 05:13:53;;;;;;;23.23;7.30;;;10.70;99.90;;;;;;6273923;22;20011;-92
2023/05/17 05:16:57;;;;;;;22.90;8.48;;;10.80;99.90;;;;;;6226534;22;20007;-92
2023/05/17 05:25:55;;;;;;;21.90;7.70;;;10.90;99.90;;;;;;6156183;23;20057;-92
2023/05/17 05:28:54;;;;;;;19.58;7.88;;;10.90;99.90;;;;;;6227712;23;20004;-91
2023/05/17 05:32:14;;;;;;;24.50;8.13;;;10.90;99.90;;;;;;6205777;23;20008;-91
2023/05/17 05:34:58;;;;;;;20.95;7.88;;;10.90;99.90;;;;;;6223479;23;20028;-90
2023/05/17 05:37:49;;;;;;;25.17;8.05;;;11.00;99.90;;;;;;6219068;23;20004;-92
2023/05/17 05:44:16;;;;;;;25.05;9.25;;;11.00;99.90;;;;;;6250747;23;20035;-93
2023/05/17 05:47:03;;;;;;;21.20;8.10;;;11.00;99.90;;;;;;6222765;23;20012;-91
2023/05/17 05:50:02;;;;;;;25.45;8.43;;;11.00;99.90;;;;;;6178469;23;20000;-91
2023/05/17 05:53:00;;;;;;;25.27;7.75;;;11.10;99.90;;;;;;6180073;23;20034;-92
2023/05/17 05:56:19;;;;;;;;;;;;;;;;;;;;;
2023/05/17 06:00:01;;;;;;;21.75;7.25;;;11.10;99.90;;;;;;6162458;23;20020;-90
2023/05/17 06:05:59;;;;;;;24.25;7.00;;;11.20;99.90;;;;;;6189712;23;20016;-90
2023/05/17 06:08:45;;;;;;;;;;;;;;;;;;;;;
2023/05/17 06:24:39;;;;;;;17.90;5.07;;;11.40;99.90;;;;;;6197375;23;20331;-91
2023/05/17 07:20:06;;;;;;;13.00;3.30;;;12.10;99.90;;;;;;6013375;23;20018;-90
2023/05/17 07:22:38;;;;;;;11.50;2.47;;;12.20;99.90;;;;;;6143898;23;20059;-88
2023/05/17 07:25:18;;;;;;;;;;;;;;;;;;;;;
2023/05/17 07:28:02;;;;;;;13.03;2.43;;;12.30;99.90;;;;;;6222283;23;20019;-88
2023/05/17 07:30:37;;;;;;;15.27;3.60;;;12.30;99.90;;;;;;6199948;23;20020;-88
2023/05/17 07:33:06;;;;;;;18.15;3.55;;;12.40;99.90;;;;;;6200595;23;20087;-89
2023/05/17 07:38:18;;;;;;;13.93;2.85;;;12.50;99.90;;;;;;6227442;23;20430;-90
2023/05/17 07:41:09;;;;;;;;;;;;;;;;;;;;;
2023/05/17 07:44:05;;;;;;;11.57;2.85;;;12.50;99.90;;;;;;6199624;23;20019;-90
2023/05/17 07:46:46;;;;;;;16.45;3.47;;;12.50;99.90;;;;;;6173068;23;19985;-93
2023/05/17 07:49:22;;;;;;;14.73;3.15;;;12.60;99.90;;;;;;6218159;22;20031;-90
2023/05/17 07:52:17;;;;;;;14.18;2.92;;;12.60;99.90;;;;;;6218059;23;20068;-90
2023/05/17 07:54:48;;;;;;;13.40;2.33;;;12.60;99.90;;;;;;6216871;23;20015;-90
2023/05/17 07:57:19;;;;;;;15.02;2.10;;;12.70;99.90;;;;;;6170641;23;20009;-89
2023/05/17 08:00:12;;;;;;;14.40;2.70;;;12.70;99.90;;;;;;6192994;23;20005;-89
2023/05/17 08:02:39;;;;;;;13.20;3.25;;;12.70;99.90;;;;;;6216399;23;20012;-90
2023/05/17 08:05:15;;;;;;;;;;;;;;;;;;;;;
2023/05/17 08:07:58;;;;;;;17.25;3.10;;;12.80;99.90;;;;;;6218946;23;20092;-89
2023/05/17 08:10:39;;;;;;;10.50;2.03;;;12.80;99.90;;;;;;6217823;23;20012;-89
2023/05/17 08:13:29;;;;;;;11.10;2.15;;;12.80;99.90;;;;;;6217329;23;20016;-90
2023/05/17 08:16:02;;;;;;;12.35;2.65;;;12.90;99.90;;;;;;6217612;23;20008;-89
2023/05/17 08:18:32;;;;;;;14.93;2.63;;;13.00;99.90;;;;;;6218144;23;20001;-88
2023/05/17 08:21:03;;;;;;;9.30;1.80;;;13.00;99.90;;;;;;6192957;23;20004;-91
2023/05/17 08:23:29;;;;;;;9.13;2.10;;;13.10;99.90;;;;;;6193595;23;20012;-89
2023/05/17 08:25:55;;;;;;;11.65;2.17;;;13.10;99.90;;;;;;6193702;23;20001;-89
2023/05/17 08:28:29;;;;;;;15.70;2.45;;;13.20;99.90;;;;;;6222627;23;20004;-89
2023/05/17 08:30:58;;;;;;;14.27;2.10;;;13.20;99.90;;;;;;6237099;23;20000;-93
2023/05/17 08:33:27;;;;;;;12.48;2.40;;;13.30;99.90;;;;;;6226618;23;20043;-89
2023/05/17 08:36:13;;;;;;;10.93;2.55;;;13.30;99.90;;;;;;6217063;23;20013;-89
2023/05/17 08:38:48;;;;;;;8.65;2.28;;;13.40;99.90;;;;;;6192046;23;20005;-89
2023/05/17 08:41:19;;;;;;;9.25;2.75;;;13.40;99.90;;;;;;6218830;23;20043;-89
2023/05/17 08:43:58;;;;;;;9.10;2.45;;;13.50;99.90;;;;;;6218158;23;20070;-89
2023/05/17 08:46:37;;;;;;;9.10;1.88;;;13.50;99.90;;;;;;6220480;23;20008;-89
2023/05/17 08:49:14;;;;;;;9.73;2.30;;;13.60;99.90;;;;;;6237509;23;19996;-88
2023/05/17 08:51:49;;;;;;;11.02;1.77;;;13.70;99.90;;;;;;6241246;23;20011;-89
2023/05/17 08:54:21;;;;;;;13.05;1.73;;;13.70;99.90;;;;;;6242176;23;20004;-89
2023/05/17 08:56:56;;;;;;;8.50;1.83;;;13.80;99.90;;;;;;6237497;23;20004;-90
2023/05/17 08:59:24;;;;;;;8.57;1.95;;;13.80;99.90;;;;;;6217810;23;20008;-89
2023/05/17 09:01:54;;;;;;;7.82;2.08;;;13.80;99.90;;;;;;6241181;23;20024;-90
2023/05/17 09:07:25;;;;;;;8.48;1.90;;;13.90;99.90;;;;;;6171391;23;20013;-90
2023/05/17 09:10:40;;;;;;;7.85;1.65;;;13.90;99.90;;;;;;6204605;23;20008;-89
2023/05/17 09:13:25;;;;;;;;;;;;;;;;;;;;;
2023/05/17 09:16:23;;;;;;;;;;;;;;;;;;;;;
2023/05/17 09:19:10;;;;;;;9.13;1.65;;;14.10;99.90;;;;;;6217247;23;20057;-90
2023/05/17 09:21:50;;;;;;;;;;;;;;;;;;;;;
2023/05/17 09:25:03;;;;;;;9.38;1.88;;;14.20;99.90;;;;;;6217724;23;20075;-89
2023/05/17 09:28:30;;;;;;;6.95;1.80;;;14.20;99.90;;;;;;6197316;23;20092;-91
2023/05/17 09:34:30;;;;;;;5.70;1.40;;;14.30;99.90;;;;;;6206653;23;20012;-93
2023/05/17 09:40:49;;;;;;;7.18;1.50;;;14.40;99.90;;;;;;6217405;23;20443;-89
2023/05/17 09:43:29;;;;;;;12.05;2.45;;;14.50;99.90;;;;;;6216252;23;20098;-90
2023/05/17 09:46:20;;;;;;;;;;;;;;;;;;;;;
2023/05/17 09:48:55;;;;;;;;;;;14.50;99.90;;;;;;6217446;23;20371;-90
2023/05/17 09:51:51;;;;;;;5.68;1.50;;;14.60;99.90;;;;;;6216585;23;19900;-88
2023/05/17 09:54:23;;;;;;;9.82;2.10;;;14.60;99.90;;;;;;6215691;23;20008;-90
2023/05/17 09:56:58;;;;;;;10.00;1.90;;;14.70;99.90;;;;;;6216543;23;20091;-89
2023/05/17 09:59:28;;;;;;;7.25;1.90;;;14.80;99.90;;;;;;6218856;23;19997;-94
2023/05/17 10:52:10;;;;;;;;;;;;;;;;;;;;;
2023/05/17 11:05:39;;;;;;;;;;;;;;;;;;;;;
2023/05/17 11:51:57;;;;;;;;;;;;;;;;;;;;;
2023/05/17 11:54:46;;;;;;;;;;;;;;;;;;;;;
2023/05/17 12:05:21;;;;;;;;;;;;;;;;;;;;;
2023/05/17 12:41:27;;;;;;;;;;;;;;;;;;;;;
2023/05/17 12:53:30;;;;;;;;;;;;;;;;;;;;;
2023/05/17 13:04:05;;;;;;;;;;;;;;;;;;;;;
2023/05/17 13:17:53;;;;;;;;;;;;;;;;;;;;;
2023/05/17 13:21:05;;;;;;;8.98;2.20;;;18.70;99.90;;;;;;5986757;24;20079;-94
2023/05/17 13:23:57;;;;;;;9.40;2.05;;;18.80;99.90;;;;;;6024396;23;20030;-91
2023/05/17 13:26:30;;;;;;;11.68;2.40;;;18.80;99.90;;;;;;6208136;23;20091;-94
2023/05/17 13:35:59;;;;;;;;;;;;;;;;;;;;;
2023/05/17 13:42:14;;;;;;;;;;;;;;;;;;;;;
2023/05/17 13:45:10;;;;;;;;;;;;;;;;;;;;;
2023/05/17 13:48:23;;;;;;;9.57;2.40;;;19.20;99.90;;;;;;6229592;23;20036;-90
2023/05/17 13:54:10;;;;;;;10.18;2.50;;;19.40;99.90;;;;;;6129530;23;20374;-89
2023/05/17 14:00:52;;;;;;;12.90;3.10;;;19.50;99.90;;;;;;6219546;23;20055;-89
2023/05/17 14:04:24;;;;;;;;;;;;;;;;;;;;;
2023/05/17 14:10:12;;;;;;;14.45;3.33;;;19.70;99.90;;;;;;6160670;23;20008;-89
2023/05/17 14:12:54;;;;;;;9.35;2.25;;;19.80;99.90;;;;;;6218263;23;19997;-88
2023/05/17 14:15:43;;;;;;;9.43;2.47;;;19.80;99.90;;;;;;6145783;23;20137;-88
2023/05/17 14:18:22;;;;;;;;;;;;;;;;;;;;;
2023/05/17 14:20:59;;;;;;;12.48;2.50;;;19.90;99.90;;;;;;6218572;23;20111;-89
2023/05/17 14:23:28;;;;;;;10.88;2.50;;;19.90;99.90;;;;;;6167238;23;20081;-89
2023/05/17 14:26:01;;;;;;;11.50;2.28;;;20.00;99.90;;;;;;6195610;23;20080;-88
2023/05/17 14:28:32;;;;;;;9.32;2.50;;;20.00;99.90;;;;;;6201280;23;20016;-91
2023/05/17 14:31:19;;;;;;;;;;;20.10;99.90;;;;;;6201725;23;20358;-89
2023/05/17 14:33:53;;;;;;;10.50;2.15;;;20.10;99.90;;;;;;6226246;23;19900;-88
2023/05/17 14:36:21;;;;;;;8.25;2.28;;;20.10;99.90;;;;;;6201504;23;19997;-88
2023/05/17 14:39:09;;;;;;;12.88;2.70;;;20.10;99.90;;;;;;6173760;23;20072;-88
2023/05/17 14:41:38;;;;;;;8.05;2.05;;;20.10;99.90;;;;;;6191559;23;20015;-88
2023/05/17 14:44:09;;;;;;;11.00;2.50;;;20.10;99.90;;;;;;6190621;23;20001;-88
2023/05/17 14:47:07;;;;;;;;;;;;;;;;;;;;;
2023/05/17 14:49:39;;;;;;;8.57;2.35;;;20.10;99.90;;;;;;6225550;23;20119;-88
2023/05/17 14:52:19;;;;;;;10.18;2.42;;;20.10;99.90;;;;;;6201158;23;20008;-87
2023/05/17 14:54:57;;;;;;;10.48;2.88;;;20.10;99.90;;;;;;6205759;22;20008;-88
2023/05/17 14:57:38;;;;;;;7.95;2.38;;;20.10;99.90;;;;;;6220546;23;20027;-88
2023/05/17 15:00:46;;;;;;;;;;;;;;;;;;;;;
2023/05/17 15:03:17;;;;;;;13.30;2.50;;;20.10;99.90;;;;;;6231664;23;20071;-88
2023/05/17 15:06:01;;;;;;;;;;;;;;;;;;;;;
2023/05/17 15:08:29;;;;;;;10.70;2.40;;;20.20;99.60;;;;;;6248086;23;19998;-89
2023/05/17 15:10:58;;;;;;;12.13;2.47;;;20.20;99.90;;;;;;6195431;23;20019;-88
2023/05/17 15:16:38;;;;;;;9.95;2.53;;;20.20;99.60;;;;;;6249389;23;20000;-88
2023/05/17 15:47:48;;;;;;;;;;;;;;;;;;;;;
2023/05/17 15:57:11;;;;;;;9.68;2.35;;;20.10;96.00;;;;;;5881243;24;20349;-89
2023/05/17 15:59:49;;;;;;;;;;;;;;;;;;;;;
2023/05/17 16:16:03;;;;;;;9.27;2.40;;;20.10;94.40;;;;;;5955560;23;20046;-82
2023/05/17 16:28:46;;;;;;;10.50;2.47;;;20.20;93.80;;;;;;6224228;23;20022;-90
